Time;durP1;ratioP1;P1;durP2;ratioP2;P2;SDS_P1;SDS_P2;PMS_P1;PMS_P2;Temp;Humidity;BMP_temperature;BMP_pressure;BME280_temperature;BME280_humidity;BME280_pressure;Samples;Min_cycle;Max_cycle;Signal;HPM_P1;HPM_P2
2021/09/21 00:02:25;;;;;;;16.73;8.97;;;15.50;70.70;;;;;;4897357;29;20622;-74
2021/09/21 00:04:54;;;;;;;16.00;7.43;;;15.60;70.30;;;;;;4897350;29;20498;-76
2021/09/21 00:07:21;;;;;;;15.97;7.10;;;15.60;70.40;;;;;;4897419;29;20511;-79
2021/09/21 00:09:49;;;;;;;16.40;7.50;;;15.60;70.70;;;;;;4895487;29;20788;-76
2021/09/21 00:12:16;;;;;;;16.23;7.77;;;15.10;70.40;;;;;;4897285;29;20423;-79
2021/09/21 00:14:44;;;;;;;15.63;6.97;;;15.00;70.20;;;;;;4897344;29;20446;-78
2021/09/21 00:17:11;;;;;;;19.83;9.20;;;15.10;71.30;;;;;;4897468;29;20994;-80
2021/09/21 00:19:39;;;;;;;16.30;8.30;;;15.30;70.50;;;;;;4897337;29;20511;-76
2021/09/21 00:22:06;;;;;;;18.43;8.83;;;15.10;70.50;;;;;;4895893;29;20440;-77
2021/09/21 00:24:33;;;;;;;16.07;6.50;;;15.20;70.00;;;;;;4896119;29;20430;-77
2021/09/21 00:27:01;;;;;;;16.50;7.47;;;15.40;70.30;;;;;;4897226;29;20934;-80
2021/09/21 00:29:28;;;;;;;15.67;7.20;;;15.30;70.10;;;;;;4897220;29;20412;-75
2021/09/21 00:32:00;;;;;;;16.47;8.43;;;15.30;70.30;;;;;;4897194;29;20421;-78
2021/09/21 00:34:42;;;;;;;15.67;7.13;;;15.50;69.80;;;;;;4897105;29;20424;-81
2021/09/21 00:37:15;;;;;;;11.37;8.50;;;15.40;69.80;;;;;;4897157;29;20472;-82
2021/09/21 00:39:43;;;;;;;13.93;10.77;;;15.40;69.80;;;;;;4896852;29;20544;-76
2021/09/21 00:42:13;;;;;;;15.57;14.23;;;15.20;69.30;;;;;;4895729;29;20919;-77
2021/09/21 00:44:41;;;;;;;12.60;11.40;;;15.00;69.40;;;;;;4896835;29;20920;-77
2021/09/21 00:47:11;;;;;;;15.40;14.07;;;15.10;69.80;;;;;;4911361;29;20448;-73
2021/09/21 00:49:39;;;;;;;10.13;8.67;;;15.20;69.80;;;;;;4896849;29;20409;-77
2021/09/21 00:52:06;;;;;;;11.83;10.70;;;15.10;69.40;;;;;;4896839;29;20412;-75
2021/09/21 00:54:33;;;;;;;8.43;6.63;;;15.20;69.40;;;;;;4910289;29;20439;-72
2021/09/21 00:57:01;;;;;;;14.33;13.07;;;15.30;69.40;;;;;;4896757;29;20806;-68
2021/09/21 00:59:29;;;;;;;10.53;7.67;;;15.50;69.50;;;;;;4897055;29;20974;-79
2021/09/21 01:01:56;;;;;;;15.20;13.90;;;15.80;68.30;;;;;;4897138;29;20472;-76
2021/09/21 01:04:23;;;;;;;9.50;8.40;;;15.60;67.70;;;;;;4900126;29;21077;-72
2021/09/21 01:06:51;;;;;;;11.83;7.53;;;15.40;68.20;;;;;;4899359;29;20499;-79
2021/09/21 01:09:20;;;;;;;11.87;7.50;;;15.70;68.50;;;;;;4900285;29;20454;-76
2021/09/21 01:11:49;;;;;;;13.90;11.53;;;15.80;66.50;;;;;;4899810;29;20822;-75
2021/09/21 01:14:16;;;;;;;12.20;7.57;;;16.10;66.90;;;;;;4900246;29;20463;-75
2021/09/21 01:16:45;;;;;;;10.70;7.77;;;16.30;65.90;;;;;;4900244;29;20460;-80
2021/09/21 01:19:13;;;;;;;11.70;8.10;;;16.10;66.20;;;;;;4900346;29;20475;-79
2021/09/21 01:21:42;;;;;;;9.13;7.67;;;16.40;66.40;;;;;;4900129;29;20961;-72
2021/09/21 01:24:10;;;;;;;13.73;12.07;;;16.50;65.90;;;;;;4898953;29;20437;-75
2021/09/21 01:26:38;;;;;;;11.40;6.73;;;16.50;64.70;;;;;;4900136;29;20416;-73
2021/09/21 01:29:06;;;;;;;14.67;12.30;;;16.40;64.60;;;;;;4899777;29;20782;-79
2021/09/21 01:31:33;;;;;;;13.73;8.90;;;16.70;65.80;;;;;;4900158;29;20503;-76
2021/09/21 01:34:02;;;;;;;12.90;8.80;;;17.00;64.40;;;;;;4899784;29;20416;-74
2021/09/21 01:36:31;;;;;;;12.97;8.10;;;17.00;64.70;;;;;;4899714;29;20455;-73
2021/09/21 01:38:58;;;;;;;13.23;8.57;;;17.10;64.40;;;;;;4899522;29;20428;-75
2021/09/21 01:41:26;;;;;;;13.30;9.20;;;17.40;64.80;;;;;;4899528;29;20503;-70
2021/09/21 01:43:54;;;;;;;12.83;9.30;;;17.30;64.90;;;;;;4899707;29;20864;-77
2021/09/21 01:46:26;;;;;;;11.83;7.97;;;17.40;65.00;;;;;;4899925;29;20419;-69
2021/09/21 01:48:53;;;;;;;12.50;7.20;;;17.50;65.40;;;;;;4899579;29;20794;-74
2021/09/21 01:51:38;;;;;;;14.20;8.33;;;17.60;65.00;;;;;;4899519;29;20420;-69
2021/09/21 01:59:27;;;;;;;14.70;7.37;;;17.40;65.10;;;;;;4899618;29;20436;-74
2021/09/21 02:01:54;;;;;;;13.00;8.90;;;17.90;64.70;;;;;;4899134;29;20898;-69
2021/09/21 02:04:22;;;;;;;12.37;7.20;;;17.80;64.30;;;;;;4899445;29;20420;-71
2021/09/21 02:06:51;;;;;;;12.50;7.47;;;18.20;65.30;;;;;;4899284;29;20502;-70
2021/09/21 02:09:18;;;;;;;12.63;7.70;;;18.00;66.00;;;;;;4898970;29;20440;-71
2021/09/21 02:11:47;;;;;;;12.93;8.20;;;18.20;65.80;;;;;;4898654;29;20983;-71
2021/09/21 02:14:15;;;;;;;18.87;8.03;;;18.30;66.00;;;;;;4899330;29;20934;-70
2021/09/21 02:16:46;;;;;;;15.00;12.20;;;18.30;66.50;;;;;;4899613;29;20482;-72
2021/09/21 02:19:14;;;;;;;14.57;8.47;;;17.90;67.80;;;;;;4906817;29;20431;-73
2021/09/21 02:21:42;;;;;;;17.97;16.13;;;18.30;67.90;;;;;;4894357;29;20448;-69
2021/09/21 02:24:09;;;;;;;15.63;8.20;;;18.50;67.80;;;;;;4896479;29;20432;-71
2021/09/21 02:26:36;;;;;;;12.63;7.27;;;18.30;67.20;;;;;;4901447;29;20436;-71
2021/09/21 02:29:04;;;;;;;13.13;9.03;;;18.30;68.60;;;;;;4904950;29;20447;-67
2021/09/21 02:31:31;;;;;;;14.53;9.83;;;18.40;67.70;;;;;;4900834;29;20197;-69
2021/09/21 02:33:58;;;;;;;13.23;8.17;;;18.40;68.50;;;;;;4905742;29;20235;-74
2021/09/21 02:36:26;;;;;;;12.80;8.13;;;18.40;68.80;;;;;;4909947;29;20460;-71
2021/09/21 02:38:53;;;;;;;15.20;10.13;;;18.60;69.20;;;;;;4900965;29;20189;-71
2021/09/21 02:41:21;;;;;;;12.27;7.53;;;18.50;68.60;;;;;;4902135;29;20200;-67
2021/09/21 02:43:48;;;;;;;13.03;9.00;;;18.60;69.40;;;;;;4908942;29;20184;-77
2021/09/21 02:46:16;;;;;;;12.10;8.67;;;18.90;69.70;;;;;;4897331;29;20188;-69
2021/09/21 02:48:44;;;;;;;12.40;8.03;;;18.80;66.40;;;;;;4905686;29;20435;-77
2021/09/21 02:51:11;;;;;;;15.17;6.97;;;19.10;67.00;;;;;;4908975;29;20431;-67
2021/09/21 02:53:39;;;;;;;13.07;10.53;;;19.20;68.60;;;;;;4907973;29;20428;-70
2021/09/21 02:56:06;;;;;;;14.13;8.47;;;19.10;69.10;;;;;;4902647;29;20475;-68
2021/09/21 02:58:33;;;;;;;11.83;7.73;;;18.80;70.30;;;;;;4902072;29;20184;-74
2021/09/21 03:01:01;;;;;;;12.23;8.13;;;18.60;69.80;;;;;;4899028;29;20420;-79
2021/09/21 03:03:32;;;;;;;11.87;8.13;;;18.80;68.50;;;;;;4909723;29;20459;-78
2021/09/21 03:06:05;;;;;;;11.33;7.70;;;19.00;68.50;;;;;;4912888;29;20472;-76
2021/09/21 03:08:35;;;;;;;11.23;7.17;;;18.80;68.20;;;;;;4898854;29;20439;-70
2021/09/21 03:11:16;;;;;;;11.73;7.73;;;18.80;69.30;;;;;;4899290;29;20483;-80
2021/09/21 03:19:14;;;;;;;7.87;6.53;;;19.60;65.90;;;;;;4902029;29;20200;-74
2021/09/21 03:21:42;;;;;;;10.70;9.53;;;19.80;65.80;;;;;;4917189;29;20974;-74
2021/09/21 03:24:09;;;;;;;9.13;7.43;;;19.50;65.40;;;;;;4898363;29;20539;-72
2021/09/21 03:26:36;;;;;;;8.17;6.70;;;19.70;66.40;;;;;;4915351;29;20231;-77
2021/09/21 03:29:04;;;;;;;10.20;8.37;;;19.40;67.10;;;;;;4907685;29;20429;-75
2021/09/21 03:31:31;;;;;;;13.70;8.33;;;19.40;66.60;;;;;;4896154;29;20457;-69
2021/09/21 03:33:58;;;;;;;8.93;6.43;;;19.50;65.70;;;;;;4902111;29;20420;-72
2021/09/21 03:36:26;;;;;;;11.73;8.07;;;19.40;67.60;;;;;;4908043;29;20977;-69
2021/09/21 03:38:53;;;;;;;10.47;9.43;;;19.40;66.60;;;;;;4901483;29;20189;-68
2021/09/21 03:41:22;;;;;;;9.70;8.30;;;19.20;65.00;;;;;;4913297;29;20441;-67
2021/09/21 03:43:50;;;;;;;9.60;7.73;;;19.50;66.20;;;;;;4905443;29;20185;-68
2021/09/21 03:46:17;;;;;;;11.13;10.30;;;19.50;66.80;;;;;;4909795;29;20185;-71
2021/09/21 03:48:44;;;;;;;5.90;5.23;;;19.80;64.30;;;;;;4912104;29;20491;-68
2021/09/21 03:51:12;;;;;;;6.93;6.30;;;19.50;64.20;;;;;;4910262;29;20952;-70
2021/09/21 03:53:39;;;;;;;10.90;10.03;;;19.40;64.10;;;;;;4904134;29;20480;-69
2021/09/21 03:56:07;;;;;;;7.43;5.73;;;19.50;63.70;;;;;;4904792;29;20431;-70
2021/09/21 03:58:34;;;;;;;6.57;5.97;;;19.80;65.10;;;;;;4909165;29;20949;-69
2021/09/21 04:01:01;;;;;;;9.27;7.27;;;19.90;65.70;;;;;;4895139;29;20799;-70
2021/09/21 04:03:29;;;;;;;8.07;6.00;;;19.50;67.30;;;;;;4896223;29;20998;-68
2021/09/21 04:05:56;;;;;;;9.63;8.80;;;19.70;67.10;;;;;;4897616;29;20466;-69
2021/09/21 04:08:23;;;;;;;8.67;6.13;;;19.30;70.00;;;;;;4897332;29;20981;-68
2021/09/21 04:10:51;;;;;;;8.20;6.80;;;18.20;71.90;;;;;;4896867;29;20465;-67
2021/09/21 04:13:18;;;;;;;11.00;6.10;;;18.40;73.20;;;;;;4900542;29;20805;-70
2021/09/21 04:15:45;;;;;;;9.33;7.77;;;19.00;72.50;;;;;;4902668;29;20464;-69
2021/09/21 04:18:13;;;;;;;11.17;8.20;;;19.40;71.00;;;;;;4899026;29;20514;-70
2021/09/21 04:20:40;;;;;;;12.23;7.37;;;19.30;68.20;;;;;;4898096;29;20946;-69
2021/09/21 04:23:08;;;;;;;12.20;8.77;;;19.10;68.30;;;;;;4896980;29;20235;-70
2021/09/21 04:25:35;;;;;;;10.13;6.87;;;19.30;66.60;;;;;;4900456;29;20211;-73
2021/09/21 04:28:02;;;;;;;9.30;6.87;;;19.50;65.60;;;;;;4900759;29;20448;-68
2021/09/21 04:30:30;;;;;;;8.97;6.83;;;19.50;64.10;;;;;;4898488;29;20178;-74
2021/09/21 04:32:58;;;;;;;9.00;6.10;;;19.70;64.90;;;;;;4905174;29;20275;-68
2021/09/21 04:35:25;;;;;;;10.83;7.10;;;19.50;66.20;;;;;;4904998;29;20190;-69
2021/09/21 04:37:53;;;;;;;11.93;10.73;;;19.50;65.80;;;;;;4898597;29;20325;-69
2021/09/21 04:40:20;;;;;;;9.93;7.20;;;19.60;66.30;;;;;;4901085;29;20174;-70
2021/09/21 04:42:48;;;;;;;8.57;5.20;;;19.70;65.10;;;;;;4901062;29;20185;-68
2021/09/21 04:45:15;;;;;;;10.10;7.73;;;19.90;64.00;;;;;;4898905;29;20207;-68
2021/09/21 04:47:42;;;;;;;10.70;9.87;;;19.80;65.70;;;;;;4899024;29;20667;-65
2021/09/21 04:50:10;;;;;;;11.87;7.30;;;18.80;68.70;;;;;;4900659;29;20582;-68
2021/09/21 04:52:37;;;;;;;6.50;5.73;;;18.20;71.60;;;;;;4899651;29;20619;-67
2021/09/21 04:55:05;;;;;;;10.27;7.00;;;18.70;72.20;;;;;;4902642;29;20443;-71
2021/09/21 04:57:33;;;;;;;10.37;6.43;;;19.40;70.80;;;;;;4900817;29;20229;-69
2021/09/21 05:00:00;;;;;;;10.70;6.37;;;19.80;70.10;;;;;;4902657;29;20192;-70
2021/09/21 05:02:28;;;;;;;11.97;8.47;;;19.80;68.70;;;;;;4899424;29;20600;-66
2021/09/21 05:04:55;;;;;;;11.07;7.13;;;19.40;69.60;;;;;;4903358;29;20204;-72
2021/09/21 05:07:22;;;;;;;10.40;7.57;;;19.00;70.50;;;;;;4898900;29;20440;-68
2021/09/21 05:09:50;;;;;;;10.07;7.40;;;19.20;70.20;;;;;;4901071;29;20439;-69
2021/09/21 05:12:17;;;;;;;10.50;6.43;;;18.90;70.70;;;;;;4899205;29;20447;-69
2021/09/21 05:14:44;;;;;;;39.10;6.97;;;19.80;70.30;;;;;;4895371;29;20432;-70
2021/09/21 05:17:12;;;;;;;9.80;7.07;;;19.60;69.00;;;;;;4902857;29;20248;-73
2021/09/21 05:19:39;;;;;;;11.40;5.83;;;20.00;69.00;;;;;;4903248;29;20632;-73
2021/09/21 05:22:06;;;;;;;9.67;5.77;;;19.80;69.20;;;;;;4902569;29;20223;-73
2021/09/21 05:24:34;;;;;;;10.37;8.93;;;20.10;69.30;;;;;;4897784;29;20193;-74
2021/09/21 05:27:01;;;;;;;9.30;6.30;;;19.60;70.30;;;;;;4899274;29;20534;-72
2021/09/21 05:29:28;;;;;;;9.33;6.57;;;19.80;69.40;;;;;;4899325;29;20198;-72
2021/09/21 05:31:56;;;;;;;12.07;9.87;;;19.10;70.00;;;;;;4901254;29;20189;-71
2021/09/21 05:34:23;;;;;;;9.20;7.03;;;19.00;70.30;;;;;;4900034;29;20447;-71
2021/09/21 05:36:50;;;;;;;13.53;7.77;;;18.20;72.20;;;;;;4902210;29;20896;-70
2021/09/21 05:39:18;;;;;;;12.33;8.40;;;18.00;72.60;;;;;;4902250;29;20434;-68
2021/09/21 05:41:45;;;;;;;13.53;7.23;;;18.20;72.70;;;;;;4899498;29;20432;-72
2021/09/21 05:44:12;;;;;;;11.77;7.13;;;19.10;71.30;;;;;;4906173;29;20643;-72
2021/09/21 05:46:40;;;;;;;12.47;6.90;;;19.30;69.30;;;;;;4924312;29;20203;-68
2021/09/21 05:49:07;;;;;;;17.13;8.97;;;19.70;68.50;;;;;;4902950;29;20740;-65
2021/09/21 05:51:35;;;;;;;14.40;7.27;;;19.50;68.40;;;;;;4906707;29;20672;-71
2021/09/21 05:54:02;;;;;;;13.93;7.53;;;19.20;68.90;;;;;;4897740;29;20181;-68
2021/09/21 05:56:30;;;;;;;13.70;9.20;;;18.70;70.40;;;;;;4900128;29;20462;-73
2021/09/21 05:58:58;;;;;;;13.43;8.63;;;18.90;69.50;;;;;;4903697;29;20269;-67
2021/09/21 06:01:26;;;;;;;14.10;8.57;;;19.30;68.90;;;;;;4901090;29;20596;-71
2021/09/21 06:03:53;;;;;;;14.97;11.10;;;19.60;68.10;;;;;;4910901;29;20180;-69
2021/09/21 06:06:21;;;;;;;12.30;6.67;;;19.20;66.90;;;;;;4906553;29;20197;-68
2021/09/21 06:08:49;;;;;;;12.93;7.23;;;19.20;67.50;;;;;;4898870;29;20189;-77
2021/09/21 06:11:20;;;;;;;12.23;5.33;;;19.30;67.60;;;;;;4901652;29;20272;-66
2021/09/21 06:13:48;;;;;;;16.50;8.27;;;19.10;68.60;;;;;;4898901;29;20275;-67
2021/09/21 06:16:18;;;;;;;11.90;5.50;;;18.80;67.50;;;;;;4911447;29;20200;-67
2021/09/21 06:18:46;;;;;;;13.70;5.57;;;19.00;66.20;;;;;;4903105;29;20213;-69
2021/09/21 06:21:13;;;;;;;12.37;8.00;;;18.90;64.90;;;;;;4900825;29;20192;-69
2021/09/21 06:23:41;;;;;;;12.43;9.43;;;18.40;66.80;;;;;;4899155;29;20498;-66
2021/09/21 06:26:08;;;;;;;15.77;7.60;;;18.40;67.30;;;;;;4897969;29;20873;-71
2021/09/21 06:28:36;;;;;;;11.33;7.17;;;18.40;68.00;;;;;;4905697;29;20459;-69
2021/09/21 06:31:04;;;;;;;12.07;7.70;;;18.70;68.30;;;;;;4906452;29;20886;-67
2021/09/21 06:33:31;;;;;;;12.00;7.57;;;18.90;68.30;;;;;;4886200;29;20427;-73
2021/09/21 06:35:59;;;;;;;14.93;7.63;;;18.90;67.90;;;;;;4898772;29;20189;-71
2021/09/21 06:38:26;;;;;;;15.97;6.77;;;18.90;68.60;;;;;;4906769;29;20489;-74
2021/09/21 06:40:54;;;;;;;12.17;7.43;;;18.60;69.50;;;;;;4908671;29;20435;-73
2021/09/21 06:43:21;;;;;;;11.87;8.57;;;18.70;69.90;;;;;;4898967;29;20189;-76
2021/09/21 06:45:49;;;;;;;15.03;9.87;;;18.80;70.80;;;;;;4898871;29;20184;-74
2021/09/21 06:48:16;;;;;;;12.83;9.57;;;18.80;70.90;;;;;;4898181;29;20428;-77
2021/09/21 06:50:44;;;;;;;11.00;7.20;;;18.60;71.70;;;;;;4898456;29;20202;-77
2021/09/21 06:53:11;;;;;;;12.60;8.37;;;18.60;72.00;;;;;;4898660;29;20952;-76
2021/09/21 06:55:38;;;;;;;16.77;7.13;;;18.40;71.80;;;;;;4900585;29;20519;-80
2021/09/21 06:58:05;;;;;;;12.57;9.53;;;18.40;72.70;;;;;;4905093;29;20517;-74
2021/09/21 07:00:35;;;;;;;13.70;10.10;;;18.10;73.90;;;;;;4895889;29;20806;-76
2021/09/21 07:03:03;;;;;;;12.57;8.83;;;18.00;73.80;;;;;;4898017;29;20444;-74
2021/09/21 07:05:30;;;;;;;15.23;8.30;;;17.80;74.20;;;;;;4912560;29;20552;-76
2021/09/21 07:07:57;;;;;;;11.47;7.77;;;17.60;75.00;;;;;;4897127;29;20515;-80
2021/09/21 07:10:25;;;;;;;14.57;9.53;;;17.60;75.40;;;;;;4896431;29;21014;-75
2021/09/21 07:12:52;;;;;;;12.20;8.73;;;17.50;76.10;;;;;;4896549;29;20502;-79
2021/09/21 07:15:23;;;;;;;11.37;6.70;;;17.50;76.80;;;;;;4898394;29;20426;-75
2021/09/21 07:17:55;;;;;;;17.50;11.07;;;17.40;77.20;;;;;;4896956;29;20475;-81
2021/09/21 07:20:24;;;;;;;11.37;7.53;;;16.90;78.40;;;;;;4895326;29;20466;-75
2021/09/21 07:22:52;;;;;;;15.00;7.40;;;16.60;79.90;;;;;;4898240;29;20482;-71
2021/09/21 07:25:20;;;;;;;14.53;6.83;;;16.30;81.10;;;;;;4896931;29;20416;-76
2021/09/21 07:28:11;;;;;;;13.23;9.70;;;16.00;81.50;;;;;;4898125;29;20923;-75
2021/09/21 07:30:39;;;;;;;15.87;8.80;;;15.90;82.40;;;;;;4897969;29;20412;-71
2021/09/21 07:33:12;;;;;;;13.80;6.80;;;15.80;83.20;;;;;;4898447;29;20417;-74
2021/09/21 07:35:40;;;;;;;16.20;10.30;;;15.70;84.10;;;;;;4897704;29;20431;-77
2021/09/21 07:38:08;;;;;;;14.90;9.57;;;15.60;85.20;;;;;;4898032;29;20836;-76
2021/09/21 07:40:38;;;;;;;14.40;9.03;;;15.40;85.50;;;;;;4897054;29;20970;-78
2021/09/21 07:43:10;;;;;;;14.03;12.73;;;15.30;85.30;;;;;;4895274;29;20448;-76
2021/09/21 07:45:39;;;;;;;9.30;8.27;;;15.20;86.20;;;;;;4911647;29;20440;-68
2021/09/21 07:48:09;;;;;;;12.67;11.47;;;15.10;86.80;;;;;;4901168;29;20416;-76
2021/09/21 07:50:45;;;;;;;10.23;8.77;;;15.10;87.10;;;;;;4899586;29;20438;-76
2021/09/21 07:53:14;;;;;;;13.77;12.10;;;15.10;87.80;;;;;;4897388;29;20432;-76
2021/09/21 07:55:50;;;;;;;15.17;12.90;;;15.00;88.50;;;;;;4908600;29;20980;-74
2021/09/21 07:58:35;;;;;;;9.50;8.47;;;15.00;89.30;;;;;;4898566;29;20974;-76
2021/09/21 08:01:04;;;;;;;8.57;7.37;;;14.90;90.30;;;;;;4907739;29;20447;-76
2021/09/21 08:03:34;;;;;;;12.43;11.30;;;14.90;90.70;;;;;;4895543;29;20441;-76
2021/09/21 08:06:02;;;;;;;10.67;9.63;;;14.80;90.60;;;;;;4897048;29;20424;-77
2021/09/21 08:08:34;;;;;;;9.40;8.40;;;14.80;90.70;;;;;;4896890;29;20439;-70
2021/09/21 08:11:04;;;;;;;13.23;11.90;;;14.80;91.00;;;;;;4895450;29;20504;-76
2021/09/21 08:13:39;;;;;;;10.20;9.17;;;14.80;91.40;;;;;;4900635;29;21014;-75
2021/09/21 08:16:10;;;;;;;14.37;7.80;;;14.80;91.40;;;;;;4907804;29;20834;-73
2021/09/21 08:18:48;;;;;;;13.57;11.17;;;14.70;91.50;;;;;;4893128;29;20802;-74
2021/09/21 08:21:31;;;;;;;8.83;7.83;;;14.60;91.60;;;;;;4913819;29;20781;-75
2021/09/21 08:24:01;;;;;;;13.53;12.10;;;14.60;91.60;;;;;;4917759;29;20435;-72
2021/09/21 08:26:29;;;;;;;9.03;8.10;;;14.60;91.50;;;;;;4904052;29;20507;-75
2021/09/21 08:28:58;;;;;;;10.63;9.60;;;14.60;91.70;;;;;;4902120;29;20432;-79
2021/09/21 08:31:27;;;;;;;13.87;7.93;;;14.60;91.90;;;;;;4899178;29;20464;-73
2021/09/21 08:34:00;;;;;;;20.97;13.13;;;14.60;92.20;;;;;;4899882;29;20428;-76
2021/09/21 08:36:30;;;;;;;11.17;9.83;;;14.50;92.30;;;;;;4898595;29;20480;-75
2021/09/21 08:39:01;;;;;;;13.23;11.40;;;14.60;92.70;;;;;;4908032;29;21177;-75
2021/09/21 08:41:31;;;;;;;10.67;9.63;;;14.50;92.90;;;;;;4909222;29;20490;-76
2021/09/21 08:43:59;;;;;;;10.50;9.17;;;14.60;92.30;;;;;;4900779;29;20428;-77
2021/09/21 08:46:32;;;;;;;12.33;7.77;;;14.50;91.80;;;;;;4914510;29;20484;-74
2021/09/21 08:48:59;;;;;;;10.40;9.40;;;14.50;91.80;;;;;;4900641;29;20503;-76
2021/09/21 08:51:27;;;;;;;9.10;8.00;;;14.50;91.60;;;;;;4902966;29;20431;-73
2021/09/21 08:53:54;;;;;;;18.50;17.00;;;14.50;91.50;;;;;;4901745;29;20431;-77
2021/09/21 08:56:21;;;;;;;9.60;8.10;;;14.50;91.00;;;;;;4911853;29;20439;-76
2021/09/21 08:59:09;;;;;;;10.93;9.87;;;14.40;91.40;;;;;;4909793;29;20499;-75
2021/09/21 09:01:43;;;;;;;9.53;8.10;;;14.40;91.30;;;;;;4900778;29;20443;-76
2021/09/21 09:04:12;;;;;;;11.60;9.47;;;14.50;91.30;;;;;;4901663;29;20467;-69
2021/09/21 09:07:05;;;;;;;8.73;7.70;;;14.40;91.40;;;;;;4900505;29;20703;-71
2021/09/21 09:09:39;;;;;;;9.47;8.47;;;14.40;91.60;;;;;;4896843;29;20436;-67
2021/09/21 09:12:08;;;;;;;10.47;9.33;;;14.40;91.70;;;;;;4903776;29;20471;-64
2021/09/21 09:14:38;;;;;;;17.20;9.93;;;14.40;92.10;;;;;;4910637;29;20956;-68
2021/09/21 09:17:15;;;;;;;10.13;9.10;;;14.40;92.20;;;;;;4898774;29;20482;-72
2021/09/21 09:19:45;;;;;;;10.13;9.10;;;14.40;92.40;;;;;;4898439;29;20954;-77
2021/09/21 09:22:26;;;;;;;18.27;11.97;;;14.40;92.40;;;;;;4900341;29;20528;-74
2021/09/21 09:25:02;;;;;;;10.80;9.70;;;14.40;92.40;;;;;;4898848;29;20778;-75
2021/09/21 09:27:46;;;;;;;11.70;10.57;;;14.40;92.60;;;;;;4903874;29;20435;-78
2021/09/21 09:30:20;;;;;;;11.00;9.13;;;14.40;92.80;;;;;;4901285;29;20483;-74
2021/09/21 09:32:54;;;;;;;10.60;5.97;;;14.40;92.70;;;;;;4909847;29;20478;-74
2021/09/21 09:35:35;;;;;;;9.53;8.57;;;14.40;92.60;;;;;;4905976;29;20423;-77
2021/09/21 09:38:07;;;;;;;8.33;7.00;;;14.40;92.90;;;;;;4900027;29;20484;-69
2021/09/21 09:40:55;;;;;;;9.00;6.90;;;14.40;93.00;;;;;;4900444;29;20769;-76
2021/09/21 09:43:28;;;;;;;8.97;7.97;;;14.40;93.20;;;;;;4900000;29;20424;-76
2021/09/21 09:45:59;;;;;;;12.80;11.37;;;14.40;93.10;;;;;;4897816;29;20447;-80
2021/09/21 09:48:27;;;;;;;9.80;8.80;;;14.40;93.40;;;;;;4899753;29;20428;-77
2021/09/21 09:50:57;;;;;;;10.43;8.83;;;14.40;93.30;;;;;;4902328;29;20428;-75
2021/09/21 09:53:27;;;;;;;12.53;10.93;;;14.40;93.40;;;;;;4891502;29;20460;-69
2021/09/21 09:55:56;;;;;;;11.57;10.43;;;14.40;93.50;;;;;;4898991;29;20420;-73
2021/09/21 09:58:25;;;;;;;12.63;7.23;;;14.40;93.70;;;;;;4899437;29;20566;-72
2021/09/21 10:00:56;;;;;;;7.97;6.40;;;14.40;94.00;;;;;;4898961;29;20495;-75
2021/09/21 10:03:26;;;;;;;15.00;7.77;;;14.40;94.30;;;;;;4899750;29;20436;-74
2021/09/21 10:05:54;;;;;;;8.97;7.87;;;14.30;94.50;;;;;;4903832;29;20510;-74
2021/09/21 10:08:22;;;;;;;8.77;7.43;;;14.30;95.00;;;;;;4902977;29;20427;-73
2021/09/21 10:10:50;;;;;;;7.83;6.00;;;14.30;95.20;;;;;;4903912;29;20470;-72
2021/09/21 10:13:19;;;;;;;8.57;7.50;;;14.30;95.50;;;;;;4899778;29;20436;-76
2021/09/21 10:15:46;;;;;;;9.87;8.77;;;14.20;96.00;;;;;;4900626;29;20432;-74
2021/09/21 10:18:20;;;;;;;9.77;8.37;;;14.20;95.50;;;;;;4905135;29;20467;-80
2021/09/21 10:20:58;;;;;;;8.43;6.90;;;14.20;95.50;;;;;;4912817;29;20842;-81
2021/09/21 10:23:36;;;;;;;11.30;10.23;;;14.20;95.60;;;;;;4911575;29;20845;-70
2021/09/21 10:26:16;;;;;;;8.70;7.37;;;14.10;95.80;;;;;;4901659;29;20436;-75
2021/09/21 10:28:47;;;;;;;17.30;7.80;;;14.10;96.50;;;;;;4906111;29;20421;-73
2021/09/21 10:31:17;;;;;;;8.53;6.47;;;14.10;97.00;;;;;;4909315;29;20443;-72
2021/09/21 10:33:45;;;;;;;8.20;6.83;;;14.00;97.50;;;;;;4902085;29;20459;-68
2021/09/21 10:36:45;;;;;;;7.93;6.53;;;14.00;97.70;;;;;;4896547;29;20443;-67
2021/09/21 10:39:15;;;;;;;7.63;5.87;;;14.00;97.90;;;;;;4901018;29;20444;-69
2021/09/21 10:41:58;;;;;;;8.50;7.30;;;14.00;98.10;;;;;;4909151;29;20510;-67
2021/09/21 10:44:27;;;;;;;9.57;8.60;;;14.00;98.50;;;;;;4889386;29;20435;-71
2021/09/21 10:46:59;;;;;;;7.83;6.07;;;13.90;98.70;;;;;;4912491;29;20856;-68
2021/09/21 10:49:38;;;;;;;7.90;6.33;;;13.90;99.00;;;;;;4904747;29;20434;-69
2021/09/21 10:52:11;;;;;;;8.63;7.10;;;13.90;99.10;;;;;;4900570;29;20464;-73
2021/09/21 10:54:43;;;;;;;8.13;6.83;;;13.90;99.60;;;;;;4896732;29;20499;-68
2021/09/21 10:57:17;;;;;;;7.47;5.60;;;13.90;99.90;;;;;;4901627;29;20480;-70
2021/09/21 10:59:59;;;;;;;9.40;8.43;;;13.90;99.90;;;;;;4902048;29;20423;-75
2021/09/21 11:02:32;;;;;;;8.10;6.93;;;13.80;99.90;;;;;;4899834;29;20439;-66
2021/09/21 11:05:00;;;;;;;8.63;6.57;;;13.80;99.90;;;;;;4903360;29;20420;-67
2021/09/21 11:07:27;;;;;;;11.93;7.03;;;13.80;99.90;;;;;;4904223;29;20440;-68
2021/09/21 11:09:56;;;;;;;13.13;10.43;;;13.80;99.90;;;;;;4903636;29;20442;-67
2021/09/21 11:12:25;;;;;;;8.97;8.03;;;13.80;99.90;;;;;;4899346;29;20440;-68
2021/09/21 11:14:57;;;;;;;11.20;7.13;;;13.80;99.30;;;;;;4903047;29;20432;-70
2021/09/21 11:17:26;;;;;;;42.50;8.53;;;13.80;99.10;;;;;;4902241;29;20483;-68
2021/09/21 11:19:56;;;;;;;9.70;8.50;;;13.80;99.00;;;;;;4897855;29;20919;-68
2021/09/21 11:22:29;;;;;;;7.30;5.17;;;13.80;98.90;;;;;;4898135;29;20432;-67
2021/09/21 11:25:07;;;;;;;39.20;7.77;;;13.80;99.00;;;;;;4901620;29;20435;-69
2021/09/21 11:27:36;;;;;;;8.47;5.80;;;13.80;99.30;;;;;;4902549;29;20490;-70
2021/09/21 11:30:12;;;;;;;7.70;5.30;;;13.80;99.70;;;;;;4905702;29;20952;-70
2021/09/21 11:32:44;;;;;;;6.97;4.70;;;13.80;99.90;;;;;;4901138;29;20428;-71
2021/09/21 11:35:14;;;;;;;7.93;6.50;;;13.70;99.90;;;;;;4904975;29;20515;-69
2021/09/21 11:37:46;;;;;;;12.00;10.67;;;13.70;99.90;;;;;;4889857;29;20982;-67
2021/09/21 11:40:27;;;;;;;8.03;6.57;;;13.60;99.90;;;;;;4901715;29;20434;-69
2021/09/21 11:42:56;;;;;;;7.87;6.50;;;13.60;99.90;;;;;;4897996;29;20424;-67
2021/09/21 11:45:23;;;;;;;9.30;8.20;;;13.50;99.90;;;;;;4895550;29;20939;-77
2021/09/21 11:47:51;;;;;;;13.50;8.13;;;13.50;99.90;;;;;;4899713;29;20434;-68
2021/09/21 11:50:20;;;;;;;8.53;7.43;;;13.40;99.90;;;;;;4901734;29;20442;-70
2021/09/21 11:52:53;;;;;;;15.40;6.77;;;13.40;99.90;;;;;;4905494;29;21017;-71
2021/09/21 11:55:24;;;;;;;7.77;6.13;;;13.30;99.90;;;;;;4899069;29;20428;-70
2021/09/21 11:57:52;;;;;;;8.70;5.97;;;13.30;99.90;;;;;;4899626;29;20985;-70
2021/09/21 12:00:32;;;;;;;21.97;8.57;;;13.40;99.90;;;;;;4903462;29;20772;-66
2021/09/21 12:03:02;;;;;;;10.43;8.77;;;13.40;99.80;;;;;;4899704;29;20841;-75
2021/09/21 12:05:31;;;;;;;8.93;7.40;;;13.40;99.80;;;;;;4909014;29;20778;-78
2021/09/21 12:08:02;;;;;;;9.97;8.07;;;13.40;99.60;;;;;;4898981;29;20428;-77
2021/09/21 12:10:30;;;;;;;12.93;6.77;;;13.40;99.90;;;;;;4907549;29;20460;-79
2021/09/21 12:13:05;;;;;;;8.13;6.93;;;13.40;99.90;;;;;;4901326;29;20434;-77
2021/09/21 12:15:34;;;;;;;7.63;5.97;;;13.50;99.90;;;;;;4897334;29;20776;-72
2021/09/21 12:18:08;;;;;;;10.43;7.70;;;13.40;99.90;;;;;;4896902;29;20468;-75
2021/09/21 12:20:36;;;;;;;8.03;6.60;;;13.30;99.90;;;;;;4902171;29;20509;-74
2021/09/21 12:23:06;;;;;;;8.50;7.33;;;13.20;99.90;;;;;;4895690;29;20447;-73
2021/09/21 12:25:35;;;;;;;8.33;7.33;;;13.30;99.90;;;;;;4906999;29;20482;-67
2021/09/21 12:28:06;;;;;;;8.30;6.83;;;13.30;99.90;;;;;;4899225;29;20530;-74
2021/09/21 12:30:38;;;;;;;8.30;7.37;;;13.30;99.90;;;;;;4897471;29;20424;-74
2021/09/21 12:33:08;;;;;;;7.83;6.77;;;13.30;99.90;;;;;;4897575;29;20429;-74
2021/09/21 12:35:38;;;;;;;10.87;9.73;;;13.10;99.90;;;;;;4897442;29;20771;-74
2021/09/21 12:38:16;;;;;;;10.43;9.37;;;13.00;99.90;;;;;;4897256;29;20482;-74
2021/09/21 12:41:04;;;;;;;7.93;6.23;;;12.90;99.90;;;;;;4896802;29;20752;-73
2021/09/21 12:43:45;;;;;;;7.80;6.73;;;12.80;99.90;;;;;;4897202;29;20408;-74
2021/09/21 12:46:12;;;;;;;11.83;10.77;;;12.70;99.90;;;;;;4883962;29;20946;-75
2021/09/21 12:48:43;;;;;;;7.37;6.10;;;12.60;99.90;;;;;;4898712;29;20780;-75
2021/09/21 12:51:11;;;;;;;7.57;6.13;;;12.60;99.90;;;;;;4897643;29;20428;-78
2021/09/21 12:53:39;;;;;;;10.03;9.03;;;12.50;99.90;;;;;;4898975;29;20441;-77
2021/09/21 12:56:12;;;;;;;9.17;7.93;;;12.40;99.90;;;;;;4896190;29;20816;-75
2021/09/21 12:58:41;;;;;;;8.10;7.03;;;12.40;99.90;;;;;;4898484;29;20507;-76
2021/09/21 13:01:16;;;;;;;8.70;7.10;;;12.30;99.90;;;;;;4900152;29;20436;-75
2021/09/21 13:03:44;;;;;;;9.80;8.37;;;12.30;99.90;;;;;;4904323;29;20429;-75